Terminal Aerodrome Forecast
Issued by NWS

Home | Current Version | Previous Version | Text Only | Print | Product List | Glossary On
Versions: 1 2 3 4 5 6 7 8 9 10 11
000
FTUS43 KDLH 241100
TAFBRD
TAF
KBRD 241140Z 2412/2512 05005KT P6SM OVC009
     FM241900 VRB03KT P6SM OVC015
     FM250000 22005KT P6SM OVC025=

USA.gov is the U.S. government's official web portal to all federal, state and local government web resources and services.